Time;durP1;ratioP1;P1;durP2;ratioP2;P2;SDS_P1;SDS_P2;PMS_P1;PMS_P2;Temp;Humidity;BMP_temperature;BMP_pressure;BME280_temperature;BME280_humidity;BME280_pressure;Samples;Min_cycle;Max_cycle;Signal;HPM_P1;HPM_P2
2022/05/16 00:00:54;;;;;;;12.23;4.50;;;13.00;99.90;;;;;;5015082;28;20053;-73
2022/05/16 00:03:21;;;;;;;11.50;4.95;;;13.00;99.90;;;;;;5014581;28;20049;-72
2022/05/16 00:05:48;;;;;;;8.77;4.13;;;13.00;99.90;;;;;;5015498;28;20103;-72
2022/05/16 00:08:16;;;;;;;6.22;3.30;;;13.00;99.90;;;;;;5014990;28;20138;-73
2022/05/16 00:10:43;;;;;;;14.32;4.53;;;13.00;99.90;;;;;;5032625;28;20053;-73
2022/05/16 00:13:10;;;;;;;8.18;4.32;;;13.00;99.90;;;;;;5033261;28;20056;-74
2022/05/16 00:15:37;;;;;;;7.80;4.10;;;13.00;99.90;;;;;;5014662;28;20050;-73
2022/05/16 00:18:05;;;;;;;9.65;4.65;;;13.00;99.90;;;;;;5032451;28;20053;-73
2022/05/16 00:20:32;;;;;;;8.68;4.10;;;13.00;99.90;;;;;;5014991;28;20132;-71
2022/05/16 00:22:59;;;;;;;11.18;4.43;;;13.10;99.90;;;;;;5015108;28;20091;-72
2022/05/16 00:25:27;;;;;;;10.77;4.43;;;13.00;99.90;;;;;;5032360;28;20053;-73
2022/05/16 00:27:54;;;;;;;8.05;3.72;;;13.10;99.90;;;;;;5032345;28;20519;-73
2022/05/16 00:30:21;;;;;;;8.35;4.40;;;13.10;99.90;;;;;;5014853;28;20057;-73
2022/05/16 00:32:50;;;;;;;9.02;3.88;;;13.10;99.90;;;;;;5031916;28;20049;-73
2022/05/16 00:35:19;;;;;;;7.88;4.20;;;13.20;99.90;;;;;;5033158;28;20049;-73
2022/05/16 00:37:46;;;;;;;8.80;3.60;;;13.20;99.90;;;;;;5014497;28;20111;-72
2022/05/16 00:40:14;;;;;;;9.02;3.97;;;13.20;99.90;;;;;;5032940;28;20436;-72
2022/05/16 00:42:43;;;;;;;7.45;3.92;;;13.20;99.90;;;;;;5015147;28;20523;-72
2022/05/16 00:45:13;;;;;;;7.18;3.70;;;13.20;99.90;;;;;;5031997;28;20159;-73
2022/05/16 00:47:40;;;;;;;;;;;13.20;99.90;;;;;;5015494;28;20085;-73
2022/05/16 00:50:09;;;;;;;6.60;3.78;;;13.20;99.90;;;;;;5014566;28;19974;-72
2022/05/16 00:52:40;;;;;;;6.97;3.75;;;13.20;99.90;;;;;;5013658;28;20077;-73
2022/05/16 00:55:10;;;;;;;5.75;4.13;;;13.20;99.90;;;;;;5033294;28;20480;-71
2022/05/16 00:57:48;;;;;;;8.48;3.53;;;13.20;99.90;;;;;;5017813;28;20057;-72
2022/05/16 01:00:19;;;;;;;7.13;3.80;;;13.10;99.90;;;;;;5035995;28;20462;-73
2022/05/16 01:05:34;;;;;;;7.50;3.60;;;13.10;99.90;;;;;;5018505;28;20045;-73
2022/05/16 01:08:05;;;;;;;6.55;3.88;;;13.10;99.90;;;;;;5017787;28;20049;-72
2022/05/16 01:10:33;;;;;;;7.40;3.50;;;13.10;99.90;;;;;;5019219;28;20045;-72
2022/05/16 01:13:03;;;;;;;5.57;3.60;;;13.00;99.90;;;;;;5035382;28;20085;-72
2022/05/16 01:15:34;;;;;;;6.63;3.28;;;13.00;99.90;;;;;;5036351;28;20050;-73
2022/05/16 01:18:01;;;;;;;7.78;3.70;;;13.00;99.90;;;;;;5018409;28;20088;-72
2022/05/16 01:20:42;;;;;;;5.50;3.30;;;13.00;99.90;;;;;;5017573;28;20133;-72
2022/05/16 01:23:15;;;;;;;6.82;2.97;;;13.00;99.90;;;;;;5018374;28;20049;-72
2022/05/16 01:25:43;;;;;;;8.65;3.75;;;12.90;99.90;;;;;;5035887;28;20045;-71
2022/05/16 01:28:10;;;;;;;5.78;3.25;;;12.90;99.90;;;;;;5035262;28;20172;-73
2022/05/16 01:30:46;;;;;;;6.03;3.47;;;12.90;99.90;;;;;;5017909;28;20057;-73
2022/05/16 01:33:13;;;;;;;5.22;3.05;;;12.90;99.90;;;;;;5017755;28;20081;-72
2022/05/16 01:35:40;;;;;;;7.55;4.00;;;12.80;99.90;;;;;;5017578;28;20115;-73
2022/05/16 01:38:22;;;;;;;8.32;3.55;;;12.80;99.90;;;;;;5035756;28;20088;-73
2022/05/16 01:40:53;;;;;;;6.28;2.95;;;12.80;99.90;;;;;;5035290;28;20050;-73
2022/05/16 01:43:21;;;;;;;7.13;3.25;;;12.80;99.90;;;;;;5035752;28;20504;-72
2022/05/16 01:45:48;;;;;;;6.22;2.92;;;12.80;99.90;;;;;;5035732;28;20049;-72
2022/05/16 01:48:16;;;;;;;9.75;3.25;;;12.80;99.90;;;;;;5016899;28;20398;-72
2022/05/16 01:50:44;;;;;;;4.28;3.08;;;12.70;99.90;;;;;;5036090;28;20088;-73
2022/05/16 01:53:12;;;;;;;4.97;2.97;;;12.70;99.90;;;;;;5035362;28;20053;-71
2022/05/16 01:55:39;;;;;;;6.13;3.03;;;12.70;99.90;;;;;;5016990;28;20096;-72
2022/05/16 01:58:08;;;;;;;6.32;2.80;;;12.60;99.90;;;;;;5017995;28;20134;-71
2022/05/16 02:00:35;;;;;;;5.10;2.90;;;12.60;99.90;;;;;;5017610;28;20053;-72
2022/05/16 02:03:05;;;;;;;7.60;3.25;;;12.60;99.90;;;;;;5017243;28;20068;-71
2022/05/16 02:05:32;;;;;;;7.93;3.00;;;12.50;99.90;;;;;;5017649;28;20529;-71
2022/05/16 02:07:59;;;;;;;5.55;3.13;;;12.50;99.90;;;;;;5015975;28;20103;-72
2022/05/16 02:10:28;;;;;;;5.70;2.75;;;12.50;99.90;;;;;;5034375;28;20046;-71
2022/05/16 02:12:57;;;;;;;6.53;3.00;;;12.50;99.90;;;;;;5035310;28;20049;-72
2022/05/16 02:15:27;;;;;;;3.97;2.80;;;12.40;99.90;;;;;;5035101;28;20056;-71
2022/05/16 02:17:53;;;;;;;6.78;2.47;;;12.40;99.90;;;;;;5034407;28;20060;-71
2022/05/16 02:20:21;;;;;;;7.88;2.38;;;12.40;99.90;;;;;;5017363;28;20414;-70
2022/05/16 02:25:33;;;;;;;6.88;2.97;;;12.40;99.90;;;;;;5017476;28;20060;-71
2022/05/16 02:28:00;;;;;;;4.97;2.20;;;12.40;99.90;;;;;;5034408;28;20586;-70
2022/05/16 02:30:28;;;;;;;5.32;2.53;;;12.40;99.90;;;;;;5016053;28;20057;-70
2022/05/16 02:32:55;;;;;;;4.75;2.35;;;12.40;99.90;;;;;;5017304;28;20103;-72
2022/05/16 02:35:22;;;;;;;3.53;2.30;;;12.30;99.90;;;;;;5016836;28;20140;-71
2022/05/16 02:37:50;;;;;;;5.60;2.85;;;12.30;99.90;;;;;;5033608;28;20493;-71
2022/05/16 02:40:17;;;;;;;5.80;2.60;;;12.30;99.90;;;;;;5017177;28;20095;-71
2022/05/16 02:42:44;;;;;;;4.00;2.45;;;12.30;99.90;;;;;;5016838;28;20497;-70
2022/05/16 02:45:11;;;;;;;4.93;2.28;;;12.30;99.90;;;;;;5033896;28;20104;-70
2022/05/16 02:47:39;;;;;;;5.35;2.80;;;12.30;99.90;;;;;;5017152;28;20160;-70
2022/05/16 02:50:07;;;;;;;6.03;2.38;;;12.30;99.90;;;;;;5033952;28;20135;-70
2022/05/16 02:52:34;;;;;;;4.05;2.20;;;12.20;99.90;;;;;;5033523;28;20517;-70
2022/05/16 02:55:01;;;;;;;10.10;2.97;;;12.20;99.90;;;;;;5034415;28;20493;-70
2022/05/16 02:57:28;;;;;;;4.03;1.75;;;12.20;99.90;;;;;;5016764;28;20140;-72
2022/05/16 02:59:55;;;;;;;3.95;2.00;;;12.20;99.90;;;;;;5015766;28;20049;-71
2022/05/16 03:02:22;;;;;;;5.28;2.28;;;12.10;99.90;;;;;;5016721;28;20134;-73
2022/05/16 03:04:51;;;;;;;4.65;2.22;;;12.10;99.90;;;;;;5016405;28;20201;-73
2022/05/16 03:07:18;;;;;;;8.77;2.75;;;12.10;99.90;;;;;;5015611;28;20085;-72
2022/05/16 03:09:46;;;;;;;7.25;2.72;;;12.10;99.90;;;;;;5016574;28;20049;-73
2022/05/16 03:12:13;;;;;;;4.18;2.47;;;12.10;99.90;;;;;;5016163;28;20079;-73
2022/05/16 03:14:41;;;;;;;5.70;2.20;;;12.10;99.90;;;;;;5016013;28;20181;-72
2022/05/16 03:17:08;;;;;;;3.78;2.08;;;12.00;99.90;;;;;;5034173;28;20082;-73
2022/05/16 03:19:35;;;;;;;5.88;2.20;;;12.00;99.90;;;;;;5014860;28;20575;-72
2022/05/16 03:22:05;;;;;;;6.80;2.38;;;12.00;99.90;;;;;;5015965;28;20107;-73
2022/05/16 03:24:32;;;;;;;5.05;2.53;;;12.00;99.90;;;;;;5033189;28;20525;-72
2022/05/16 03:26:59;;;;;;;7.00;3.00;;;12.00;99.90;;;;;;5015434;28;20065;-71
2022/05/16 03:29:25;;;;;;;4.22;2.30;;;12.00;99.90;;;;;;5033258;28;20058;-71
2022/05/16 03:31:52;;;;;;;5.60;1.85;;;11.90;99.90;;;;;;5015643;28;20119;-71
2022/05/16 03:34:19;;;;;;;3.53;2.28;;;11.90;99.90;;;;;;5015116;28;20081;-71
2022/05/16 03:36:46;;;;;;;3.40;1.95;;;11.90;99.90;;;;;;5033758;28;20085;-71
2022/05/16 03:41:58;;;;;;;7.25;2.35;;;11.90;99.90;;;;;;5015395;28;20148;-71
2022/05/16 03:44:25;;;;;;;4.00;2.38;;;11.90;99.90;;;;;;5015641;28;20125;-71
2022/05/16 03:46:52;;;;;;;5.10;2.47;;;11.90;99.90;;;;;;5015819;28;20053;-70
2022/05/16 03:49:19;;;;;;;3.50;2.22;;;11.80;99.90;;;;;;5014861;28;20049;-72
2022/05/16 03:51:46;;;;;;;5.75;2.20;;;11.80;99.90;;;;;;5015673;28;20049;-73
2022/05/16 03:54:17;;;;;;;4.30;2.13;;;11.80;99.90;;;;;;5015770;28;20045;-72
2022/05/16 03:56:44;;;;;;;6.30;2.17;;;11.80;99.90;;;;;;5015098;28;20049;-72
2022/05/16 03:59:12;;;;;;;3.72;2.05;;;11.80;99.90;;;;;;5033079;28;20128;-72
2022/05/16 04:01:39;;;;;;;5.28;2.40;;;11.80;99.90;;;;;;5032449;28;20084;-74
2022/05/16 04:04:06;;;;;;;4.82;2.15;;;11.80;99.90;;;;;;5015353;28;20132;-73
2022/05/16 04:06:34;;;;;;;4.70;2.22;;;11.80;99.90;;;;;;5033319;28;20085;-73
2022/05/16 04:09:01;;;;;;;5.55;2.35;;;11.90;99.90;;;;;;5032416;28;20475;-73
2022/05/16 04:11:29;;;;;;;6.40;2.40;;;11.90;99.90;;;;;;5033146;28;20508;-73
2022/05/16 04:13:56;;;;;;;4.85;2.20;;;11.90;99.90;;;;;;5034013;28;20137;-73
2022/05/16 04:16:23;;;;;;;4.13;2.25;;;11.90;99.90;;;;;;5016166;28;20581;-73
2022/05/16 04:18:50;;;;;;;4.35;2.35;;;11.90;99.90;;;;;;5034233;28;20063;-72
2022/05/16 04:21:17;;;;;;;3.72;2.22;;;12.00;99.90;;;;;;5016467;28;20076;-73
2022/05/16 04:23:43;;;;;;;4.57;2.28;;;12.00;99.90;;;;;;5033205;28;20172;-72
2022/05/16 04:26:11;;;;;;;4.72;2.40;;;12.00;99.90;;;;;;5033200;28;20460;-72
2022/05/16 04:28:39;;;;;;;5.05;2.55;;;12.10;99.90;;;;;;5014381;28;20563;-70
2022/05/16 04:31:06;;;;;;;4.82;2.25;;;12.10;99.90;;;;;;5031794;28;20053;-71
2022/05/16 04:33:35;;;;;;;8.70;3.00;;;12.10;99.90;;;;;;5015177;28;20103;-72
2022/05/16 04:36:02;;;;;;;6.13;2.47;;;12.10;99.90;;;;;;5032626;28;20057;-72
2022/05/16 04:38:29;;;;;;;5.97;2.28;;;12.20;99.90;;;;;;5014633;28;20527;-72
2022/05/16 04:43:42;;;;;;;7.55;3.00;;;12.30;99.90;;;;;;5032160;28;20046;-73
2022/05/16 04:46:09;;;;;;;6.80;2.40;;;12.40;99.90;;;;;;5015277;28;20464;-72
2022/05/16 04:48:36;;;;;;;11.60;2.28;;;12.40;99.90;;;;;;5032346;28;20409;-73
2022/05/16 04:51:03;;;;;;;5.38;2.70;;;12.50;99.90;;;;;;5031353;28;20092;-72
2022/05/16 04:53:30;;;;;;;6.25;2.10;;;12.50;99.90;;;;;;5031314;28;20080;-72
2022/05/16 04:55:58;;;;;;;7.45;2.75;;;12.50;99.90;;;;;;5013694;28;20053;-72
2022/05/16 04:58:25;;;;;;;15.73;3.00;;;12.60;99.90;;;;;;5031929;28;20053;-71
2022/05/16 05:00:53;;;;;;;4.45;2.20;;;12.70;99.90;;;;;;5014491;28;20057;-73
2022/05/16 05:03:20;;;;;;;10.75;2.85;;;12.80;99.90;;;;;;5032153;28;20128;-72
2022/05/16 05:05:46;;;;;;;8.07;2.92;;;12.80;99.90;;;;;;5014592;28;20167;-72
2022/05/16 05:08:13;;;;;;;5.97;2.20;;;12.90;99.90;;;;;;5014451;28;20081;-74
2022/05/16 05:16:12;;;;;;;9.50;3.10;;;13.40;99.90;;;;;;5032394;28;20049;-73
2022/05/16 05:18:40;;;;;;;5.80;2.47;;;13.50;99.90;;;;;;5032299;28;20092;-73
2022/05/16 05:21:07;;;;;;;4.57;2.22;;;13.60;99.90;;;;;;5014093;28;20049;-74
2022/05/16 05:23:34;;;;;;;5.32;2.28;;;13.70;99.90;;;;;;5015028;28;20080;-72
2022/05/16 05:26:02;;;;;;;4.78;2.20;;;13.80;99.90;;;;;;5031566;28;20045;-73
2022/05/16 05:28:29;;;;;;;6.05;2.55;;;13.80;99.90;;;;;;5032274;28;20516;-72
2022/05/16 05:30:57;;;;;;;18.88;3.63;;;13.90;99.90;;;;;;5031959;28;20049;-72
2022/05/16 05:33:25;;;;;;;7.03;2.78;;;13.80;99.90;;;;;;5032273;28;20128;-73
2022/05/16 05:35:52;;;;;;;4.70;2.70;;;13.90;99.90;;;;;;5032775;28;20054;-72
2022/05/16 05:38:19;;;;;;;9.23;2.78;;;13.90;99.90;;;;;;4995507;28;20054;-73
2022/05/16 05:40:46;;;;;;;7.03;3.08;;;14.00;99.90;;;;;;5023058;28;20509;-74
2022/05/16 05:43:13;;;;;;;8.45;2.90;;;14.00;99.90;;;;;;5034467;28;20045;-73
2022/05/16 05:45:41;;;;;;;5.60;2.03;;;14.10;99.90;;;;;;5018085;28;20053;-73
2022/05/16 05:48:08;;;;;;;5.70;2.60;;;14.20;99.90;;;;;;5017738;28;20056;-72
2022/05/16 05:50:36;;;;;;;6.13;2.60;;;14.30;99.90;;;;;;5018416;28;20099;-73
2022/05/16 05:53:03;;;;;;;5.25;2.78;;;14.40;99.90;;;;;;5035418;28;20099;-72
2022/05/16 05:55:30;;;;;;;6.35;2.53;;;14.40;99.90;;;;;;5016868;28;20077;-74
2022/05/16 05:57:58;;;;;;;6.70;2.50;;;14.50;99.90;;;;;;5035849;28;20099;-74
2022/05/16 06:00:25;;;;;;;9.05;2.50;;;14.50;99.90;;;;;;5035271;28;20046;-73
2022/05/16 06:02:52;;;;;;;6.85;2.72;;;14.50;99.90;;;;;;5017535;28;20053;-72
2022/05/16 06:05:22;;;;;;;7.28;2.70;;;14.50;99.90;;;;;;5018113;28;20100;-73
2022/05/16 06:07:50;;;;;;;6.10;3.30;;;14.50;99.90;;;;;;5034928;28;20053;-73
2022/05/16 06:10:17;;;;;;;7.13;2.70;;;14.50;99.90;;;;;;5034448;28;20110;-73
2022/05/16 06:12:44;;;;;;;7.28;2.70;;;14.70;99.90;;;;;;5035446;28;20049;-72
2022/05/16 06:15:12;;;;;;;5.80;2.38;;;14.90;99.90;;;;;;5009302;28;20597;-71
2022/05/16 06:17:40;;;;;;;15.32;2.85;;;15.10;99.90;;;;;;5004347;28;20088;-71
2022/05/16 06:20:09;;;;;;;6.07;2.50;;;15.30;99.90;;;;;;5027765;28;20049;-71
2022/05/16 06:22:38;;;;;;;5.15;2.45;;;15.50;99.90;;;;;;5006410;28;20115;-71
2022/05/16 06:27:53;;;;;;;7.22;2.67;;;16.00;99.90;;;;;;5007704;28;23333;-71
2022/05/16 06:30:20;;;;;;;4.93;2.40;;;16.20;99.90;;;;;;5009219;28;20041;-71
2022/05/16 06:32:48;;;;;;;11.00;3.13;;;16.50;99.90;;;;;;5008687;28;20057;-71
2022/05/16 06:35:15;;;;;;;5.00;2.38;;;16.90;99.90;;;;;;5015035;28;20045;-73
2022/05/16 06:37:43;;;;;;;6.60;3.30;;;17.30;99.90;;;;;;5021307;28;20049;-72
2022/05/16 06:40:12;;;;;;;5.55;2.67;;;17.70;99.90;;;;;;5032232;28;20049;-72
2022/05/16 06:42:39;;;;;;;5.32;2.50;;;18.20;99.90;;;;;;5026338;28;20091;-71
2022/05/16 06:45:07;;;;;;;5.75;2.50;;;18.80;99.90;;;;;;5030418;28;20092;-72
2022/05/16 06:47:34;;;;;;;9.15;2.70;;;19.30;99.90;;;;;;5028960;28;20049;-72
2022/05/16 06:50:01;;;;;;;7.15;2.75;;;19.80;99.90;;;;;;5008179;28;20073;-72
2022/05/16 06:52:28;;;;;;;10.15;2.92;;;20.10;99.90;;;;;;5005264;28;20057;-72
2022/05/16 06:54:55;;;;;;;5.75;2.65;;;20.40;99.70;;;;;;5007827;28;20474;-73
2022/05/16 06:57:23;;;;;;;7.03;2.60;;;20.60;98.70;;;;;;5027045;28;20071;-73
2022/05/16 06:59:50;;;;;;;7.28;2.80;;;21.00;98.00;;;;;;5027145;28;20053;-72
2022/05/16 07:02:17;;;;;;;7.60;2.38;;;21.40;97.30;;;;;;5011634;28;20060;-73
2022/05/16 07:04:43;;;;;;;10.20;2.60;;;21.80;97.00;;;;;;5013329;28;20130;-72
2022/05/16 07:07:12;;;;;;;6.80;2.78;;;22.10;96.40;;;;;;5026757;28;20129;-73
2022/05/16 07:09:39;;;;;;;6.95;2.55;;;21.90;95.00;;;;;;5024711;28;20072;-72
2022/05/16 07:12:08;;;;;;;11.30;2.70;;;22.10;94.50;;;;;;5005673;28;20053;-72
2022/05/16 07:14:38;;;;;;;5.13;2.80;;;22.30;94.00;;;;;;5014998;28;20132;-74
2022/05/16 07:17:05;;;;;;;6.30;2.80;;;22.40;93.40;;;;;;5026004;28;20136;-73
2022/05/16 07:19:34;;;;;;;8.30;2.55;;;22.40;93.70;;;;;;5025479;28;20073;-72
2022/05/16 07:22:01;;;;;;;8.13;3.33;;;22.20;93.50;;;;;;5024699;28;20510;-71
2022/05/16 07:24:28;;;;;;;6.85;2.53;;;21.80;93.40;;;;;;5007118;28;20508;-71
2022/05/16 07:29:41;;;;;;;7.00;2.47;;;21.60;93.70;;;;;;5023977;28;20100;-72
2022/05/16 07:32:11;;;;;;;7.45;3.45;;;22.40;93.50;;;;;;5028457;28;20091;-71
2022/05/16 07:34:38;;;;;;;12.43;3.20;;;23.00;93.00;;;;;;5005916;28;20096;-71
2022/05/16 07:37:05;;;;;;;6.88;2.63;;;23.70;92.20;;;;;;5003045;28;20111;-71
2022/05/16 07:39:34;;;;;;;10.27;3.03;;;24.20;91.20;;;;;;5009624;28;20057;-72
2022/05/16 07:42:01;;;;;;;8.18;2.75;;;24.70;90.60;;;;;;5007499;28;20054;-73
2022/05/16 07:44:28;;;;;;;8.35;2.67;;;24.80;89.10;;;;;;5007290;28;20493;-74
2022/05/16 07:46:56;;;;;;;7.32;2.58;;;24.90;88.00;;;;;;5008353;28;20057;-73
2022/05/16 07:49:23;;;;;;;4.47;2.35;;;24.70;87.10;;;;;;5005499;28;20382;-74
2022/05/16 07:51:50;;;;;;;5.88;2.17;;;25.00;87.10;;;;;;5008136;28;20073;-74
2022/05/16 07:54:17;;;;;;;7.30;2.95;;;25.10;86.60;;;;;;5028018;28;20049;-74
2022/05/16 07:56:44;;;;;;;6.68;2.30;;;25.10;85.20;;;;;;5008089;28;20143;-74
2022/05/16 07:59:11;;;;;;;5.63;2.40;;;25.20;84.60;;;;;;5007425;28;20461;-74
2022/05/16 08:01:38;;;;;;;6.70;2.40;;;25.50;84.20;;;;;;5007085;28;20119;-73
2022/05/16 08:04:07;;;;;;;6.43;2.35;;;26.10;83.90;;;;;;5025883;28;20077;-73
2022/05/16 08:06:35;;;;;;;7.17;2.63;;;26.60;82.70;;;;;;5005543;28;20077;-74
2022/05/16 08:11:46;;;;;;;8.63;2.22;;;26.70;80.90;;;;;;5024897;28;20073;-75
2022/05/16 08:14:13;;;;;;;6.22;2.70;;;26.80;79.80;;;;;;5025404;28;20037;-73
2022/05/16 08:16:40;;;;;;;8.80;3.25;;;27.00;79.50;;;;;;5004772;28;20041;-73
2022/05/16 08:19:08;;;;;;;10.20;2.65;;;26.90;77.70;;;;;;5012224;28;20054;-72
2022/05/16 08:21:36;;;;;;;6.70;2.53;;;26.70;76.90;;;;;;5001820;28;20479;-73
2022/05/16 08:24:07;;;;;;;8.85;2.58;;;26.80;76.90;;;;;;5011701;28;20056;-73
2022/05/16 08:26:35;;;;;;;7.70;2.35;;;26.90;76.40;;;;;;5005216;28;20103;-72
2022/05/16 08:29:02;;;;;;;6.68;2.80;;;26.80;76.10;;;;;;5013037;28;20054;-73
2022/05/16 08:31:29;;;;;;;10.32;2.55;;;27.30;75.80;;;;;;5012943;28;20089;-73
2022/05/16 08:33:56;;;;;;;9.27;2.67;;;27.60;75.30;;;;;;5007517;28;20069;-72
2022/05/16 08:41:56;;;;;;;7.68;2.63;;;28.10;74.20;;;;;;4990235;28;20052;-73
2022/05/16 08:44:28;;;;;;;8.53;2.50;;;28.40;73.10;;;;;;4994894;28;20387;-70
2022/05/16 08:47:05;;;;;;;6.13;2.30;;;28.80;70.90;;;;;;4999788;28;20042;-72
2022/05/16 08:49:36;;;;;;;8.02;2.42;;;28.70;69.50;;;;;;4998198;28;20494;-70
2022/05/16 08:52:12;;;;;;;7.70;2.40;;;28.60;70.50;;;;;;5002096;28;20643;-68
2022/05/16 08:54:44;;;;;;;9.68;3.00;;;28.60;70.00;;;;;;5013903;28;20088;-72
2022/05/16 08:57:14;;;;;;;7.63;2.25;;;28.90;69.10;;;;;;5025140;28;20061;-72
2022/05/16 08:59:45;;;;;;;8.27;2.45;;;29.00;69.60;;;;;;5012434;28;20078;-72
2022/05/16 09:02:19;;;;;;;6.72;2.50;;;29.10;69.00;;;;;;5015066;28;20061;-73
2022/05/16 09:04:51;;;;;;;9.23;2.58;;;29.00;68.60;;;;;;5008561;28;20100;-73
2022/05/16 09:07:24;;;;;;;6.10;2.30;;;28.90;69.10;;;;;;5007555;28;20058;-73
2022/05/16 09:09:56;;;;;;;12.20;2.40;;;28.60;69.60;;;;;;4994116;28;20054;-74
2022/05/16 09:12:28;;;;;;;8.27;2.53;;;28.40;69.10;;;;;;5009517;28;20050;-74
2022/05/16 09:15:09;;;;;;;6.55;2.35;;;28.10;68.90;;;;;;4996575;28;20084;-74
2022/05/16 09:17:50;;;;;;;5.97;2.60;;;27.70;69.40;;;;;;4996840;28;20054;-73
2022/05/16 09:20:30;;;;;;;7.35;2.35;;;27.30;70.40;;;;;;5011665;28;20085;-74
2022/05/16 09:23:07;;;;;;;7.50;2.60;;;27.30;71.10;;;;;;4999843;28;20120;-73
2022/05/16 09:25:42;;;;;;;8.85;2.88;;;27.30;70.40;;;;;;5030100;28;20045;-72
2022/05/16 09:31:16;;;;;;;9.18;2.67;;;26.70;69.90;;;;;;4970424;28;20055;-73
2022/05/16 09:33:47;;;;;;;7.28;2.72;;;27.00;70.40;;;;;;5006848;28;20081;-73
2022/05/16 09:36:21;;;;;;;9.57;2.85;;;27.20;70.30;;;;;;5014534;28;20081;-72
2022/05/16 09:38:50;;;;;;;7.55;2.30;;;27.40;69.80;;;;;;5015063;28;20053;-74
2022/05/16 09:41:22;;;;;;;8.38;2.80;;;27.30;70.00;;;;;;5006682;28;20045;-74
2022/05/16 09:43:58;;;;;;;6.30;2.67;;;27.50;70.20;;;;;;4997584;28;20109;-72
2022/05/16 09:46:33;;;;;;;8.60;2.90;;;28.10;69.70;;;;;;5018911;28;20296;-74
2022/05/16 09:49:06;;;;;;;10.20;2.70;;;28.50;68.90;;;;;;5014903;28;20420;-74
2022/05/16 09:51:44;;;;;;;8.68;2.85;;;28.60;67.80;;;;;;5010589;28;20486;-74
2022/05/16 09:54:22;;;;;;;3.97;2.53;;;28.50;68.40;;;;;;4997003;28;20077;-75
2022/05/16 09:56:58;;;;;;;7.32;2.20;;;28.90;67.80;;;;;;5033974;28;20571;-75
2022/05/16 09:59:42;;;;;;;6.55;2.40;;;29.50;67.20;;;;;;5014064;28;20128;-74
2022/05/16 10:02:27;;;;;;;6.43;2.20;;;29.90;67.30;;;;;;5014222;28;20417;-74
2022/05/16 10:04:56;;;;;;;5.47;2.50;;;30.20;65.20;;;;;;5004763;28;20146;-74
2022/05/16 10:07:27;;;;;;;;;;;30.80;66.00;;;;;;5013208;28;20085;-74
2022/05/16 10:09:56;;;;;;;5.35;1.80;;;31.10;64.00;;;;;;4992384;28;19925;-74
2022/05/16 10:12:26;;;;;;;8.13;2.53;;;31.70;65.10;;;;;;5013856;28;20081;-74
2022/05/16 10:14:53;;;;;;;4.82;2.60;;;31.50;63.40;;;;;;5010864;28;20371;-74
2022/05/16 10:17:28;;;;;;;6.90;3.30;;;31.60;63.00;;;;;;5004198;28;20054;-73
2022/05/16 10:19:59;;;;;;;8.05;2.70;;;31.50;62.40;;;;;;5000657;28;20077;-74
2022/05/16 10:22:26;;;;;;;4.68;2.13;;;31.50;62.30;;;;;;5005973;28;20077;-74
2022/05/16 10:24:59;;;;;;;4.93;2.20;;;31.40;62.60;;;;;;5013418;28;20050;-73
2022/05/16 10:27:29;;;;;;;6.70;2.20;;;31.50;62.70;;;;;;5013621;28;20081;-73
2022/05/16 10:30:00;;;;;;;6.70;2.88;;;31.50;62.50;;;;;;4999419;28;20536;-73
2022/05/16 10:35:24;;;;;;;6.72;2.30;;;31.50;61.20;;;;;;4996146;28;20077;-74
2022/05/16 10:37:54;;;;;;;9.70;2.20;;;31.20;61.00;;;;;;5020991;28;20057;-74
2022/05/16 10:40:29;;;;;;;6.22;2.13;;;31.00;61.70;;;;;;5014279;28;20085;-73
2022/05/16 10:43:08;;;;;;;7.45;2.10;;;31.10;61.10;;;;;;4996877;28;20054;-74
2022/05/16 10:45:37;;;;;;;8.55;2.30;;;31.60;61.60;;;;;;4995616;28;20534;-74
2022/05/16 10:48:14;;;;;;;6.93;2.45;;;32.20;60.40;;;;;;5010353;28;20092;-75
2022/05/16 10:50:47;;;;;;;7.97;2.17;;;32.70;60.10;;;;;;5001821;28;20089;-74
2022/05/16 10:53:20;;;;;;;8.52;2.47;;;33.20;59.60;;;;;;5000122;28;20058;-75
2022/05/16 10:55:54;;;;;;;8.93;2.72;;;33.20;58.50;;;;;;5012731;28;20073;-74
2022/05/16 10:58:36;;;;;;;6.65;2.40;;;32.90;58.80;;;;;;5019184;28;20111;-74
2022/05/16 11:01:11;;;;;;;6.47;2.20;;;32.60;58.70;;;;;;5004494;28;20097;-73
2022/05/16 11:04:08;;;;;;;4.35;2.13;;;32.30;59.20;;;;;;5015194;28;20065;-74
2022/05/16 11:06:53;;;;;;;11.70;2.35;;;32.10;58.90;;;;;;4995180;28;20081;-75
2022/05/16 11:09:31;;;;;;;7.03;1.90;;;32.00;59.60;;;;;;5014593;28;20481;-75
2022/05/16 11:12:04;;;;;;;5.65;2.17;;;31.90;58.40;;;;;;4996626;28;20053;-74
2022/05/16 11:14:38;;;;;;;7.80;2.20;;;31.30;59.00;;;;;;5000556;28;20507;-74
2022/05/16 11:17:11;;;;;;;6.32;2.08;;;30.90;59.30;;;;;;5021775;28;20056;-74
2022/05/16 11:19:46;;;;;;;5.22;2.20;;;30.30;59.70;;;;;;5002126;28;20116;-74
2022/05/16 11:22:15;;;;;;;5.07;2.13;;;29.80;60.20;;;;;;4996068;28;20112;-75
2022/05/16 11:24:48;;;;;;;6.80;2.15;;;29.20;60.70;;;;;;5024612;28;20111;-73
2022/05/16 11:27:25;;;;;;;6.80;2.15;;;28.80;61.10;;;;;;5017775;28;20054;-74
2022/05/16 11:30:03;;;;;;;6.85;2.40;;;28.40;61.90;;;;;;5025997;28;20099;-75
2022/05/16 11:32:46;;;;;;;8.85;2.30;;;28.00;62.30;;;;;;5019181;28;20049;-73
2022/05/16 11:35:19;;;;;;;12.63;2.67;;;27.70;62.70;;;;;;5006918;28;20050;-74
2022/05/16 11:38:06;;;;;;;6.50;2.60;;;27.50;63.40;;;;;;5006194;28;20501;-75
2022/05/16 11:40:42;;;;;;;6.90;2.58;;;27.40;64.00;;;;;;5002543;28;20107;-74
2022/05/16 11:43:15;;;;;;;4.82;2.45;;;27.10;64.30;;;;;;4997592;28;20096;-72
2022/05/16 11:46:18;;;;;;;4.88;2.00;;;27.10;64.40;;;;;;5011806;28;20053;-75
2022/05/16 11:48:57;;;;;;;7.07;2.53;;;27.00;65.00;;;;;;4995793;28;20128;-74
2022/05/16 11:51:36;;;;;;;7.07;2.20;;;27.00;65.20;;;;;;4994467;28;20060;-73
2022/05/16 11:54:05;;;;;;;7.07;2.30;;;27.00;65.50;;;;;;4994113;28;20057;-73
2022/05/16 12:02:16;;;;;;;6.50;2.75;;;27.00;66.30;;;;;;4974023;28;20394;-74
2022/05/16 12:04:45;;;;;;;6.03;2.60;;;27.00;66.00;;;;;;5027747;28;20072;-72
2022/05/16 12:07:19;;;;;;;10.95;3.00;;;26.90;66.60;;;;;;5015823;28;20091;-73
2022/05/16 12:09:55;;;;;;;10.30;2.88;;;26.90;68.00;;;;;;5010678;28;20099;-74
2022/05/16 12:12:35;;;;;;;9.05;2.95;;;26.90;69.00;;;;;;4997378;28;20049;-75
2022/05/16 12:15:18;;;;;;;8.20;3.13;;;26.90;69.00;;;;;;5012733;28;20498;-72
2022/05/16 12:17:50;;;;;;;15.23;4.32;;;26.80;70.20;;;;;;4996916;28;20050;-73
2022/05/16 12:20:33;;;;;;;11.23;3.20;;;26.80;70.40;;;;;;5018294;28;20085;-73
2022/05/16 12:23:00;;;;;;;9.63;3.53;;;26.60;70.20;;;;;;5000759;28;20092;-73
2022/05/16 12:25:33;;;;;;;10.65;3.45;;;26.50;70.30;;;;;;5012294;28;20054;-74
2022/05/16 12:28:23;;;;;;;7.78;3.45;;;26.50;70.80;;;;;;5011616;28;20493;-77
2022/05/16 12:30:56;;;;;;;9.88;3.97;;;26.40;72.10;;;;;;4996786;28;20104;-76
2022/05/16 12:33:51;;;;;;;7.85;3.25;;;26.40;71.40;;;;;;5018044;28;20054;-77
2022/05/16 12:36:20;;;;;;;6.53;3.58;;;26.40;71.40;;;;;;5016853;28;20077;-77
2022/05/16 12:38:51;;;;;;;9.45;4.00;;;26.30;71.60;;;;;;4995635;28;20058;-77
2022/05/16 12:41:51;;;;;;;7.63;3.20;;;26.10;71.90;;;;;;5006129;28;20057;-77
2022/05/16 12:44:47;;;;;;;13.05;4.03;;;25.90;73.10;;;;;;4993939;28;20108;-78
2022/05/16 12:47:49;;;;;;;11.52;3.40;;;25.70;74.00;;;;;;5003275;28;20052;-77
2022/05/16 12:50:30;;;;;;;7.72;3.33;;;25.50;74.80;;;;;;5024190;28;20050;-78
2022/05/16 12:53:37;;;;;;;12.90;3.75;;;25.30;74.70;;;;;;5016248;28;20046;-79
2022/05/16 12:56:10;;;;;;;9.23;3.47;;;25.40;74.90;;;;;;5006820;28;20468;-78
2022/05/16 12:58:46;;;;;;;7.18;3.80;;;25.50;74.50;;;;;;4997091;28;20046;-78
2022/05/16 13:01:25;;;;;;;8.45;3.25;;;25.60;74.60;;;;;;5016027;28;20410;-79
2022/05/16 13:04:03;;;;;;;8.40;3.35;;;25.70;74.70;;;;;;5016066;28;20096;-77
2022/05/16 13:06:43;;;;;;;7.20;3.35;;;25.90;75.00;;;;;;4999737;28;20124;-76
2022/05/16 13:09:28;;;;;;;7.13;3.28;;;26.10;75.30;;;;;;5025818;28;20053;-75
2022/05/16 13:12:03;;;;;;;8.88;3.28;;;26.30;75.20;;;;;;4998779;28;20054;-77
2022/05/16 13:14:37;;;;;;;7.47;3.63;;;26.60;75.00;;;;;;4998076;28;20468;-76
2022/05/16 13:17:08;;;;;;;9.80;4.03;;;26.90;74.70;;;;;;5015702;28;20046;-76
2022/05/16 13:19:43;;;;;;;12.55;4.40;;;27.20;73.90;;;;;;5003073;28;20482;-77
2022/05/16 13:22:13;;;;;;;7.20;4.22;;;27.30;73.90;;;;;;5030515;28;20092;-78
2022/05/16 13:24:40;;;;;;;9.00;3.90;;;27.40;73.60;;;;;;5024460;28;20073;-77
2022/05/16 13:29:56;;;;;;;8.73;4.25;;;27.00;73.40;;;;;;5013839;28;20073;-76
2022/05/16 13:32:29;;;;;;;11.18;4.13;;;26.80;73.60;;;;;;5018035;28;20076;-77
2022/05/16 13:34:59;;;;;;;7.43;3.72;;;26.60;73.80;;;;;;5012962;28;20081;-77
2022/05/16 13:37:29;;;;;;;8.25;3.58;;;26.20;74.50;;;;;;5010233;28;20528;-77
2022/05/16 13:39:57;;;;;;;;;;;26.10;74.80;;;;;;5015772;28;20061;-76
2022/05/16 13:42:24;;;;;;;12.90;4.32;;;25.90;75.30;;;;;;5014186;28;19921;-78
2022/05/16 13:44:57;;;;;;;8.50;3.38;;;25.80;75.60;;;;;;5000312;28;20065;-78
2022/05/16 13:47:26;;;;;;;11.70;4.05;;;25.70;76.40;;;;;;5014480;28;20060;-78